Terminal Aerodrome Forecast
Issued by NWS

Home | Current Version | Previous Version | Text Only | Print | Product List | Glossary On
Versions: 1 2 3 4 5 6 7 8 9 10 11 12
000
FTUS43 KPAH 190500
TAFCGI
TAF
KCGI 190520Z 1906/2006 18010KT P6SM SCT080 BKN150
     FM191300 22012G20KT P6SM BKN080
     FM191800 24015G25KT P6SM SCT030 BKN060
     FM192200 28010KT P6SM SCT060
     FM200100 30005KT P6SM SKC=

USA.gov is the U.S. government's official web portal to all federal, state and local government web resources and services.